Time;durP1;ratioP1;P1;durP2;ratioP2;P2;SDS_P1;SDS_P2;PMS_P1;PMS_P2;Temp;Humidity;BMP_temperature;BMP_pressure;BME280_temperature;BME280_humidity;BME280_pressure;Samples;Min_cycle;Max_cycle;Signal;HPM_P1;HPM_P2
2022/01/25 00:08:25;;;;;;;26.25;24.77;;;;;;;2.38;100.00;102723.09;5043296;28;20401;-78
2022/01/25 00:25:42;;;;;;;32.80;31.00;;;;;;;2.25;100.00;102705.84;5038965;28;20048;-77
2022/01/25 00:28:20;;;;;;;33.95;32.10;;;;;;;2.24;100.00;102701.47;5037730;28;20056;-76
2022/01/25 00:31:02;;;;;;;35.60;33.70;;;;;;;2.25;100.00;102693.28;5044905;28;20490;-78
2022/01/25 00:33:35;;;;;;;34.90;33.00;;;;;;;2.21;100.00;102700.84;5044289;28;20055;-76
2022/01/25 00:36:10;;;;;;;37.75;35.75;;;;;;;2.17;100.00;102685.25;5047817;28;20056;-78
2022/01/25 00:38:44;;;;;;;37.92;35.90;;;;;;;2.17;100.00;102686.06;5042862;28;20044;-78
2022/01/25 00:41:19;;;;;;;36.08;34.10;;;;;;;2.15;100.00;102690.78;5056992;28;20058;-77
2022/01/25 00:43:49;;;;;;;41.03;38.83;;;;;;;2.21;100.00;102689.25;5048667;28;20056;-76
2022/01/25 00:46:23;;;;;;;44.78;42.38;;;;;;;2.16;100.00;102687.09;5043024;28;20060;-76
2022/01/25 00:48:55;;;;;;;46.05;43.55;;;;;;;2.19;100.00;102680.53;5045093;28;20060;-78
2022/01/25 00:54:29;;;;;;;45.20;42.78;;;;;;;2.21;100.00;102682.03;5046998;28;20059;-77
2022/01/25 00:57:03;;;;;;;42.75;40.45;;;;;;;2.18;100.00;102681.53;5039809;28;20076;-75
2022/01/25 00:59:33;;;;;;;46.72;44.20;;;;;;;2.21;100.00;102681.22;5038251;28;20056;-78
2022/01/25 01:02:08;;;;;;;46.67;44.17;;;;;;;2.12;100.00;102671.50;5043873;28;20045;-78
2022/01/25 01:04:42;;;;;;;53.53;50.65;;;;;;;2.23;100.00;102679.16;5044653;28;20060;-78
2022/01/25 01:07:16;;;;;;;52.83;50.00;;;;;;;2.23;100.00;102670.28;5042082;28;20060;-78
2022/01/25 01:09:48;;;;;;;52.28;49.47;;;;;;;2.25;100.00;102669.09;5047957;28;20060;-77
2022/01/25 01:12:37;;;;;;;49.92;47.22;;;;;;;2.21;100.00;102665.09;5041628;28;20052;-76
2022/01/25 01:15:19;;;;;;;51.15;48.42;;;;;;;2.24;100.00;102661.19;5044869;28;20049;-78
2022/01/25 01:29:44;;;;;;;57.50;54.40;;;;;;;2.13;100.00;102659.75;5039737;28;20299;-76
2022/01/25 01:32:44;;;;;;;55.92;52.92;;;;;;;2.16;100.00;102665.59;5067461;28;20057;-79
2022/01/25 01:38:25;;;;;;;62.42;59.10;;;;;;;2.16;100.00;102659.41;5034862;28;20449;-77
2022/01/25 01:41:10;;;;;;;67.28;63.67;;;;;;;2.18;100.00;102662.72;5052931;28;20477;-77
2022/01/25 01:43:45;;;;;;;67.15;63.55;;;;;;;2.14;100.00;102650.66;5047006;28;20059;-78
2022/01/25 01:46:29;;;;;;;69.28;65.57;;;;;;;2.16;100.00;102664.75;5060449;28;20060;-77
2022/01/25 01:49:06;;;;;;;75.78;71.75;;;;;;;2.24;100.00;102661.19;5044176;28;20047;-78
2022/01/25 01:51:43;;;;;;;66.18;62.63;;;;;;;2.14;100.00;102658.72;5052134;28;20050;-77
2022/01/25 01:54:16;;;;;;;73.15;69.25;;;;;;;2.13;100.00;102663.25;5041025;28;20049;-78
2022/01/25 01:56:50;;;;;;;79.53;75.32;;;;;;;2.14;100.00;102656.88;5057416;28;20045;-76
2022/01/25 01:59:24;;;;;;;80.60;76.35;;;;;;;2.09;100.00;102651.19;5047233;28;20080;-77
2022/01/25 02:01:52;;;;;;;80.80;76.53;;;;;;;2.21;100.00;102662.41;5051107;28;20049;-76
2022/01/25 02:04:23;;;;;;;80.22;75.95;;;;;;;2.14;100.00;102659.56;5053056;28;20081;-78
2022/01/25 02:06:57;;;;;;;81.90;77.55;;;;;;;2.20;100.00;102663.41;5046280;28;20045;-76
2022/01/25 02:09:32;;;;;;;91.32;86.55;;;;;;;2.26;100.00;102661.88;5044331;28;20615;-77
2022/01/25 02:12:07;;;;;;;92.18;87.38;;;;;;;2.31;100.00;102654.94;5041864;28;20052;-78
2022/01/25 02:14:41;;;;;;;88.38;83.75;;;;;;;2.23;100.00;102655.00;5045620;28;20408;-79
2022/01/25 02:17:37;;;;;;;82.78;78.40;;;;;;;2.25;100.00;102650.28;5061631;28;20060;-77
2022/01/25 02:22:57;;;;;;;87.00;82.45;;;;;;;2.17;100.00;102640.41;5070182;28;20049;-78
2022/01/25 02:25:30;;;;;;;85.82;81.30;;;;;;;2.24;100.00;102653.97;5048854;28;20056;-79
2022/01/25 02:28:04;;;;;;;91.53;86.72;;;;;;;2.13;100.00;102644.47;5047758;28;20417;-77
2022/01/25 02:30:37;;;;;;;90.03;85.32;;;;;;;2.13;100.00;102649.84;5052732;28;20045;-76
2022/01/25 02:33:11;;;;;;;105.47;100.00;;;;;;;2.15;100.00;102639.72;5043423;28;20052;-78
2022/01/25 02:35:46;;;;;;;116.70;110.70;;;;;;;2.22;100.00;102642.56;5046785;28;20053;-78
2022/01/25 02:38:24;;;;;;;119.80;113.60;;;;;;;2.32;100.00;102642.34;5047139;28;20395;-78
2022/01/25 02:40:58;;;;;;;136.98;129.88;;;;;;;2.33;100.00;102644.84;5047444;28;20044;-78
2022/01/25 02:43:34;;;;;;;136.32;129.25;;;;;;;2.28;100.00;102641.03;5049173;28;20037;-78
2022/01/25 02:48:52;;;;;;;143.38;135.93;;;;;;;2.41;100.00;102640.47;5049202;28;20057;-78
2022/01/25 02:51:28;;;;;;;139.15;131.93;;;;;;;2.24;100.00;102631.63;5046278;28;20401;-77
2022/01/25 02:53:57;;;;;;;132.65;125.80;;;;;;;2.30;100.00;102642.53;5039972;28;20057;-76
2022/01/25 02:56:27;;;;;;;133.80;126.82;;;;;;;2.30;100.00;102631.78;5059628;28;20519;-78
2022/01/25 02:59:01;;;;;;;134.27;127.28;;;;;;;2.27;100.00;102637.50;5042063;28;20061;-77
2022/01/25 03:01:35;;;;;;;139.48;132.25;;;;;;;2.27;100.00;102631.31;5048448;28;20064;-79
2022/01/25 03:04:04;;;;;;;132.15;125.30;;;;;;;2.27;100.00;102620.56;5046212;28;20075;-76
2022/01/25 03:06:34;;;;;;;131.95;125.07;;;;;;;2.25;100.00;102619.88;5058379;28;20516;-77
2022/01/25 03:09:07;;;;;;;122.82;116.45;;;;;;;2.23;100.00;102628.13;5046056;28;20421;-77
2022/01/25 03:11:42;;;;;;;132.98;126.07;;;;;;;2.24;100.00;102626.25;5042069;28;20049;-77
2022/01/25 03:14:11;;;;;;;143.75;136.27;;;;;;;2.23;100.00;102628.13;5051091;28;20068;-77
2022/01/25 03:16:48;;;;;;;134.90;127.90;;;;;;;2.34;100.00;102627.72;5043801;28;20053;-77
2022/01/25 03:19:41;;;;;;;143.90;136.35;;;;;;;2.31;100.00;102628.09;5048281;28;20393;-79
2022/01/25 03:22:29;;;;;;;147.23;139.50;;;;;;;2.30;100.00;102629.09;5041461;28;20049;-77
2022/01/25 03:25:03;;;;;;;147.75;140.00;;;;;;;2.31;100.00;102625.38;5040097;28;20512;-78
2022/01/25 03:27:36;;;;;;;166.57;157.70;;;;;;;2.26;100.00;102614.31;5049171;28;20036;-78
2022/01/25 03:30:10;;;;;;;169.82;160.77;;;;;;;2.28;100.00;102614.16;5046834;28;20049;-77
2022/01/25 03:32:38;;;;;;;181.10;171.43;;;;;;;2.28;100.00;102611.47;5047256;28;20044;-78
2022/01/25 03:35:11;;;;;;;194.63;184.25;;;;;;;2.30;100.00;102621.03;5049645;28;20049;-77
2022/01/25 03:37:41;;;;;;;206.52;195.55;;;;;;;2.28;100.00;102617.69;5045082;28;20049;-77
2022/01/25 03:40:11;;;;;;;236.95;224.35;;;;;;;2.34;100.00;102622.34;5038563;28;20053;-76
2022/01/25 03:42:45;;;;;;;232.75;220.35;;;;;;;2.25;100.00;102618.06;5041521;28;20048;-77
2022/01/25 03:45:21;;;;;;;259.30;245.40;;;;;;;2.34;100.00;102616.16;5049685;28;20053;-77
2022/01/25 03:49:48;;;;;;;272.00;257.40;;;;;;;2.30;100.00;102615.66;5042929;28;20520;-76
2022/01/25 03:50:52;;;;;;;283.63;268.27;;;;;;;2.32;100.00;102608.25;5045439;28;20416;-77
2022/01/25 03:53:22;;;;;;;286.05;270.63;;;;;;;2.31;100.00;102601.22;5034580;28;20037;-78
2022/01/25 03:55:50;;;;;;;262.48;248.40;;;;;;;2.21;100.00;102593.38;5044345;28;20053;-77
2022/01/25 03:58:23;;;;;;;276.40;261.55;;;;;;;2.30;100.00;102587.97;5058318;28;20402;-78
2022/01/25 04:00:57;;;;;;;252.52;238.93;;;;;;;2.23;100.00;102582.44;5047611;28;20052;-78
2022/01/25 04:03:35;;;;;;;303.70;287.08;;;;;;;2.22;100.00;102578.09;5044398;28;20041;-77
2022/01/25 04:06:10;;;;;;;339.70;320.52;;;;;;;2.27;100.00;102585.63;5051490;28;20542;-79
2022/01/25 04:08:45;;;;;;;372.08;350.30;;;;;;;2.20;100.00;102574.75;5042153;28;20421;-76
2022/01/25 04:11:13;;;;;;;484.02;454.08;;;;;;;2.20;100.00;102572.91;5046471;28;20082;-78
2022/01/25 04:13:48;;;;;;;496.55;465.65;;;;;;;2.18;100.00;102571.41;5042989;28;20049;-78
2022/01/25 04:16:21;;;;;;;714.70;667.17;;;;;;;2.23;100.00;102577.06;5049881;28;20547;-78
2022/01/25 04:19:02;;;;;;;811.45;755.38;;;;;;;2.25;100.00;102580.44;5045308;28;20049;-78
2022/01/25 04:24:42;;;;;;;925.00;858.92;;;;;;;2.24;100.00;102580.59;5046262;28;20053;-81
2022/01/25 04:25:11;;;;;;;1002.05;928.72;;;;;;;2.23;100.00;102574.41;5052909;28;20049;-78
2022/01/25 04:27:44;;;;;;;968.80;898.92;;;;;;;2.18;100.00;102583.00;5041122;28;20045;-76
2022/01/25 04:30:13;;;;;;;948.67;880.13;;;;;;;2.17;100.00;102580.50;5042265;28;20049;-77
2022/01/25 04:32:47;;;;;;;1122.70;999.90;;;;;;;2.17;100.00;102573.25;5041923;28;20049;-78
2022/01/25 04:35:40;;;;;;;1138.20;999.90;;;;;;;2.20;100.00;102574.75;5067855;28;20536;-78
2022/01/25 04:49:34;;;;;;;1206.35;999.90;;;;;;;2.24;100.00;102559.97;5041046;28;20057;-77
2022/01/25 04:52:05;;;;;;;1203.97;999.90;;;;;;;2.25;100.00;102563.47;5040973;28;20391;-77
2022/01/25 04:54:43;;;;;;;1201.18;999.90;;;;;;;2.16;100.00;102557.31;5037076;28;20060;-77
2022/01/25 04:57:34;;;;;;;1211.55;999.90;;;;;;;2.24;100.00;102562.63;5047543;28;20494;-77
2022/01/25 05:00:15;;;;;;;1214.75;999.90;;;;;;;2.19;100.00;102559.66;5044731;28;20512;-77
2022/01/25 05:02:50;;;;;;;1214.45;999.90;;;;;;;2.19;100.00;102562.34;5045538;28;20044;-77
2022/01/25 05:05:30;;;;;;;1216.95;999.90;;;;;;;2.20;100.00;102564.00;5047104;28;20049;-77
2022/01/25 05:08:15;;;;;;;1218.18;999.90;;;;;;;2.13;100.00;102560.38;5038888;28;20053;-77
2022/01/25 05:10:59;;;;;;;1224.10;999.90;;;;;;;2.14;100.00;102559.34;5054802;28;20039;-78
2022/01/25 05:13:44;;;;;;;1222.22;999.90;;;;;;;2.16;100.00;102560.00;5048185;28;20417;-78
2022/01/25 05:16:28;;;;;;;1229.60;999.90;;;;;;;2.17;100.00;102553.63;5051751;28;20539;-77
2022/01/25 05:19:02;;;;;;;1235.13;999.90;;;;;;;2.20;100.00;102553.25;5065712;28;20386;-77
2022/01/25 05:24:28;;;;;;;1245.50;999.90;;;;;;;2.20;100.00;102553.25;5047986;28;20047;-77
2022/01/25 05:26:56;;;;;;;1247.63;999.90;;;;;;;2.17;100.00;102553.63;5053452;28;20044;-77
2022/01/25 05:29:26;;;;;;;1251.05;999.90;;;;;;;2.20;100.00;102542.53;5053099;28;20072;-79
2022/01/25 05:32:00;;;;;;;1249.60;999.90;;;;;;;2.20;100.00;102542.53;5046215;28;20037;-77
2022/01/25 05:34:28;;;;;;;1252.22;999.90;;;;;;;2.16;100.00;102550.09;5070011;28;20082;-78
2022/01/25 05:37:02;;;;;;;1255.55;999.90;;;;;;;2.24;100.00;102546.53;5043042;28;20378;-77
2022/01/25 05:39:37;;;;;;;1257.00;999.90;;;;;;;2.16;100.00;102547.41;5048756;28;20485;-77
2022/01/25 05:42:28;;;;;;;1257.25;999.90;;;;;;;2.27;100.00;102554.22;5052133;28;20051;-77
2022/01/25 05:45:18;;;;;;;1263.15;999.90;;;;;;;2.29;100.00;102557.59;5059271;28;20064;-77
2022/01/25 05:47:51;;;;;;;1263.65;999.90;;;;;;;2.23;100.00;102558.28;5047814;28;20063;-77
2022/01/25 05:50:24;;;;;;;1264.65;999.90;;;;;;;2.20;100.00;102554.09;5043449;28;20049;-77
2022/01/25 05:52:58;;;;;;;1272.10;999.90;;;;;;;2.17;100.00;102554.44;5048968;28;20508;-79
2022/01/25 05:55:31;;;;;;;1275.00;999.90;;;;;;;2.14;100.00;102559.34;5047979;28;20045;-77
2022/01/25 05:57:59;;;;;;;1282.45;999.90;;;;;;;2.21;100.00;102553.09;5056554;28;20060;-77
2022/01/25 06:00:34;;;;;;;1285.68;999.90;;;;;;;2.19;100.00;102560.47;5048885;28;20060;-77
2022/01/25 06:03:04;;;;;;;1285.90;999.90;;;;;;;2.20;100.00;102558.63;5049869;28;20049;-77
2022/01/25 06:05:38;;;;;;;1290.78;999.90;;;;;;;2.22;100.00;102567.34;5042339;28;20045;-77
2022/01/25 06:08:11;;;;;;;1296.63;999.90;;;;;;;2.22;100.00;102572.72;5047167;28;20049;-77
2022/01/25 06:10:40;;;;;;;1304.10;999.90;;;;;;;2.32;100.00;102567.09;5047617;28;20064;-77
2022/01/25 06:13:13;;;;;;;1308.82;999.90;;;;;;;2.29;100.00;102556.72;5053314;28;20364;-78
2022/01/25 06:15:48;;;;;;;1307.13;999.90;;;;;;;2.24;100.00;102542.97;5045866;28;20469;-79
2022/01/25 06:18:21;;;;;;;1303.55;999.90;;;;;;;2.18;100.00;102539.16;5046437;28;20045;-78
2022/01/25 06:20:55;;;;;;;1300.07;999.90;;;;;;;2.21;100.00;102545.03;5044942;28;20075;-76
2022/01/25 06:23:23;;;;;;;1314.72;999.90;;;;;;;2.17;100.00;102534.81;5051396;28;20057;-77
2022/01/25 06:25:51;;;;;;;1322.45;999.90;;;;;;;2.32;100.00;102548.31;5049063;28;20051;-77
2022/01/25 06:28:24;;;;;;;1313.20;999.90;;;;;;;2.21;100.00;102560.31;5051834;28;20053;-77
2022/01/25 06:30:59;;;;;;;1310.13;999.90;;;;;;;2.19;100.00;102551.59;5050114;28;20056;-77
2022/01/25 06:33:32;;;;;;;1315.10;999.90;;;;;;;2.20;100.00;102558.63;5052925;28;20052;-78
2022/01/25 06:36:06;;;;;;;1328.25;999.90;;;;;;;2.14;100.00;102549.44;5045949;28;20405;-77
2022/01/25 06:38:34;;;;;;;1333.88;999.90;;;;;;;2.20;100.00;102553.25;5053010;28;20037;-76
2022/01/25 06:41:09;;;;;;;1339.63;999.90;;;;;;;2.17;100.00;102545.56;5063874;28;20056;-76
2022/01/25 06:43:37;;;;;;;1344.45;999.90;;;;;;;2.18;100.00;102550.75;5047803;28;20049;-78
2022/01/25 06:46:07;;;;;;;1348.35;999.90;;;;;;;2.17;100.00;102550.94;5055950;28;20045;-78
2022/01/25 06:48:40;;;;;;;1354.30;999.90;;;;;;;2.23;100.00;102550.22;5046570;28;20059;-77
2022/01/25 06:51:09;;;;;;;1362.78;999.90;;;;;;;2.22;100.00;102548.53;5046837;28;20049;-77
2022/01/25 06:53:42;;;;;;;1368.20;999.90;;;;;;;2.31;100.00;102555.53;5046118;28;20044;-77
2022/01/25 06:56:10;;;;;;;1371.57;999.90;;;;;;;2.25;100.00;102555.41;5040274;28;20056;-77
2022/01/25 06:58:41;;;;;;;1367.72;999.90;;;;;;;2.20;100.00;102554.09;5046840;28;20064;-76
2022/01/25 07:01:17;;;;;;;1371.50;999.90;;;;;;;2.18;100.00;102560.66;5042802;28;20060;-80
2022/01/25 07:03:51;;;;;;;1367.47;999.90;;;;;;;2.17;100.00;102564.38;5066034;28;20060;-77
2022/01/25 07:06:24;;;;;;;1381.85;999.90;;;;;;;2.23;100.00;102568.19;5040520;28;20508;-76
2022/01/25 07:08:58;;;;;;;1387.18;999.90;;;;;;;2.21;100.00;102569.19;5047488;28;20064;-77
2022/01/25 07:11:32;;;;;;;1398.53;999.90;;;;;;;2.25;100.00;102569.69;5037574;28;20053;-75
2022/01/25 07:14:05;;;;;;;1403.50;999.90;;;;;;;2.29;100.00;102581.75;5047127;28;20385;-77
2022/01/25 07:16:40;;;;;;;1406.25;999.90;;;;;;;2.25;100.00;102580.44;5050501;28;20041;-77
2022/01/25 07:19:13;;;;;;;1435.57;999.90;;;;;;;2.25;100.00;102577.75;5050245;28;20052;-78
2022/01/25 07:21:47;;;;;;;1448.28;999.90;;;;;;;2.25;100.00;102576.91;5044354;28;20401;-79
2022/01/25 07:24:15;;;;;;;1466.15;999.90;;;;;;;2.31;100.00;102578.91;5041308;28;20053;-78
2022/01/25 07:26:48;;;;;;;1477.30;999.90;;;;;;;2.26;100.00;102584.78;5045947;28;20049;-77
2022/01/25 07:29:22;;;;;;;1492.72;999.90;;;;;;;2.27;100.00;102589.16;5037468;28;20041;-76
2022/01/25 07:31:51;;;;;;;1491.07;999.90;;;;;;;2.27;100.00;102583.78;5049096;28;20394;-77
2022/01/25 07:34:28;;;;;;;1515.57;999.90;;;;;;;2.30;100.00;102586.09;5048073;28;20052;-77
2022/01/25 07:37:05;;;;;;;1538.75;999.90;;;;;;;2.31;100.00;102582.41;5046833;28;20416;-78
2022/01/25 07:39:33;;;;;;;1549.75;999.90;;;;;;;2.28;100.00;102579.22;5047443;28;20517;-77
2022/01/25 07:42:14;;;;;;;1552.30;999.90;;;;;;;2.33;100.00;102580.34;5042168;28;20056;-78
2022/01/25 07:44:55;;;;;;;1567.25;999.90;;;;;;;2.32;100.00;102583.22;5038928;28;20052;-77
2022/01/25 07:47:29;;;;;;;1566.03;999.90;;;;;;;2.32;100.00;102588.59;5042275;28;20052;-77
2022/01/25 07:50:04;;;;;;;1590.93;999.90;;;;;;;2.35;100.00;102593.66;5059771;28;20056;-79
2022/01/25 07:52:44;;;;;;;1611.00;999.90;;;;;;;2.37;100.00;102587.06;5042804;28;20044;-79
2022/01/25 07:55:18;;;;;;;1648.20;999.90;;;;;;;2.45;100.00;102591.53;5050600;28;20567;-78
2022/01/25 07:57:51;;;;;;;1647.80;999.90;;;;;;;2.41;100.00;102586.72;5046581;28;20481;-78
2022/01/25 08:00:24;;;;;;;1641.80;999.90;;;;;;;2.42;100.00;102585.69;5046363;28;20499;-77
2022/01/25 08:02:55;;;;;;;1653.05;999.90;;;;;;;2.45;100.00;102582.66;5041521;28;20053;-77
2022/01/25 08:05:32;;;;;;;1666.10;999.90;;;;;;;2.43;100.00;102592.75;5047400;28;20393;-77
2022/01/25 08:08:26;;;;;;;1659.05;999.90;;;;;;;2.42;100.00;102585.69;4997471;28;20061;-76
2022/01/25 08:11:00;;;;;;;1677.72;999.90;;;;;;;2.46;100.00;102587.84;5039158;28;20060;-77
2022/01/25 08:13:36;;;;;;;1697.60;999.90;;;;;;;2.44;100.00;102594.41;5047535;28;20465;-78
2022/01/25 08:16:20;;;;;;;1722.90;999.90;;;;;;;2.46;100.00;102579.78;4981684;28;20054;-77
2022/01/25 08:19:17;;;;;;;1722.32;999.90;;;;;;;2.44;100.00;102583.66;4957733;28;20066;-77
2022/01/25 08:22:06;;;;;;;1746.20;999.90;;;;;;;2.48;100.00;102584.97;4961826;28;20059;-77
2022/01/25 08:24:51;;;;;;;1764.00;999.90;;;;;;;2.50;100.00;102591.84;4919017;28;20096;-78
2022/01/25 08:27:38;;;;;;;1776.88;999.90;;;;;;;2.54;100.00;102589.63;4956028;28;20058;-79
2022/01/25 08:30:14;;;;;;;1780.20;999.90;;;;;;;2.47;100.00;102591.38;4964611;28;20070;-77
2022/01/25 08:33:02;;;;;;;1793.63;999.90;;;;;;;2.53;100.00;102585.28;4869857;29;20052;-76
2022/01/25 08:36:05;;;;;;;1826.32;999.90;;;;;;;2.54;100.00;102593.16;4812948;29;20099;-78
2022/01/25 08:38:46;;;;;;;1838.88;999.90;;;;;;;2.63;100.00;102591.25;4813813;29;20062;-78
2022/01/25 08:41:23;;;;;;;1876.60;999.90;;;;;;;2.71;100.00;102591.19;4845509;29;20403;-77
2022/01/25 08:44:12;;;;;;;1879.90;999.90;;;;;;;2.68;100.00;102588.00;4837989;29;20065;-76
2022/01/25 08:46:44;;;;;;;1885.45;999.90;;;;;;;2.71;100.00;102590.38;4848411;29;20055;-78
2022/01/25 08:49:20;;;;;;;1889.90;999.90;;;;;;;2.66;100.00;102572.06;4847584;29;20061;-78
2022/01/25 08:51:52;;;;;;;1910.65;999.90;;;;;;;2.74;100.00;102586.47;4835106;29;20435;-77
2022/01/25 08:54:35;;;;;;;1929.50;999.90;;;;;;;2.80;100.00;102580.38;4841633;29;20056;-78
2022/01/25 08:57:11;;;;;;;1931.35;999.90;;;;;;;2.82;100.00;102581.88;4851557;29;20772;-79
2022/01/25 08:59:59;;;;;;;1954.75;999.90;;;;;;;2.96;100.00;102593.69;4864493;29;20399;-79
2022/01/25 09:02:32;;;;;;;1952.32;999.90;;;;;;;2.92;100.00;102583.47;4851116;29;20067;-77
2022/01/25 09:05:08;;;;;;;1951.75;999.90;;;;;;;2.97;100.00;102579.22;4865334;29;20465;-78
2022/01/25 09:07:43;;;;;;;1939.53;999.90;;;;;;;3.00;100.00;102575.34;4863236;29;20060;-79
2022/01/25 09:10:16;;;;;;;1953.18;999.90;;;;;;;2.96;100.00;102579.41;4876660;29;20088;-79
2022/01/25 09:12:45;;;;;;;1955.07;999.90;;;;;;;3.05;100.00;102576.44;4926847;28;21400;-80
2022/01/25 09:15:20;;;;;;;1967.10;999.90;;;;;;;3.11;100.00;102572.19;4906924;29;20748;-79
2022/01/25 09:17:48;;;;;;;1959.55;999.90;;;;;;;3.00;100.00;102580.72;4924268;28;20493;-79
2022/01/25 09:20:22;;;;;;;1988.40;999.90;;;;;;;3.05;100.00;102586.34;4911925;29;20081;-77
2022/01/25 09:22:56;;;;;;;1996.97;999.90;;;;;;;3.18;100.00;102594.66;4911031;29;20535;-79
2022/01/25 09:25:31;;;;;;;1999.90;999.90;;;;;;;3.19;100.00;102600.84;4924072;28;20597;-79
2022/01/25 09:27:59;;;;;;;1999.90;999.90;;;;;;;3.24;100.00;102595.78;4922260;28;20067;-78
2022/01/25 09:30:28;;;;;;;1999.90;999.90;;;;;;;3.28;100.00;102602.47;4926637;28;20063;-79
2022/01/25 09:32:57;;;;;;;1999.90;999.90;;;;;;;3.18;100.00;102599.22;4963116;28;20062;-78
2022/01/25 09:35:26;;;;;;;1999.90;999.90;;;;;;;3.23;100.00;102603.00;4963789;28;20054;-79
2022/01/25 09:38:01;;;;;;;1999.90;999.90;;;;;;;3.30;100.00;102603.13;4966387;28;20491;-78
2022/01/25 09:40:29;;;;;;;1999.90;999.90;;;;;;;3.30;100.00;102604.97;4965132;28;20065;-78
2022/01/25 09:42:58;;;;;;;1999.90;999.90;;;;;;;3.33;100.00;102602.75;4970006;28;20065;-78
2022/01/25 09:45:32;;;;;;;1999.90;999.90;;;;;;;3.26;100.00;102601.81;4970014;28;20058;-79
2022/01/25 09:48:07;;;;;;;1999.90;999.90;;;;;;;3.38;100.00;102597.66;4972058;28;20565;-78
2022/01/25 09:50:36;;;;;;;1999.90;999.90;;;;;;;3.40;100.00;102600.16;4939802;28;20065;-79
2022/01/25 09:53:08;;;;;;;1999.90;999.90;;;;;;;3.41;100.00;102599.13;4967781;28;20058;-79
2022/01/25 09:55:43;;;;;;;1999.90;999.90;;;;;;;3.38;100.00;102600.34;4964219;28;20069;-79
2022/01/25 09:58:16;;;;;;;1999.90;999.90;;;;;;;3.39;100.00;102604.69;4972759;28;20990;-80
2022/01/25 10:00:55;;;;;;;1999.90;999.90;;;;;;;3.40;100.00;102595.59;4968476;28;20050;-78
2022/01/25 10:03:34;;;;;;;1999.90;999.90;;;;;;;3.38;100.00;102592.28;4966766;28;20680;-77
2022/01/25 10:06:13;;;;;;;1999.90;999.90;;;;;;;3.48;100.00;102599.22;4968895;28;20054;-79
2022/01/25 10:08:44;;;;;;;1999.90;999.90;;;;;;;3.51;100.00;102601.56;4964318;28;20054;-79
2022/01/25 10:11:21;;;;;;;1999.90;999.90;;;;;;;3.58;100.00;102602.50;4973132;28;20414;-79
2022/01/25 10:13:57;;;;;;;1999.90;999.90;;;;;;;3.56;100.00;102596.44;4970245;28;20069;-78
2022/01/25 10:16:32;;;;;;;1999.90;999.90;;;;;;;3.68;100.00;102607.59;4970011;28;20058;-79
2022/01/25 10:19:03;;;;;;;1999.90;999.90;;;;;;;3.62;100.00;102606.47;4966397;28;20120;-77
2022/01/25 10:21:38;;;;;;;1999.90;999.90;;;;;;;3.70;100.00;102602.84;4963360;28;20054;-80
2022/01/25 10:24:15;;;;;;;1999.90;999.90;;;;;;;3.65;100.00;102602.59;4957238;28;20046;-80
2022/01/25 10:26:50;;;;;;;1999.90;999.90;;;;;;;3.70;100.00;102606.38;4952976;28;20359;-78
2022/01/25 10:29:20;;;;;;;1999.90;999.90;;;;;;;3.61;100.00;102601.28;4951438;28;20068;-80
2022/01/25 10:31:53;;;;;;;1999.90;999.90;;;;;;;3.64;100.00;102611.69;4959201;28;20334;-78
2022/01/25 10:34:30;;;;;;;1999.90;999.90;;;;;;;3.77;100.00;102611.88;4950779;28;20050;-80
2022/01/25 10:37:00;;;;;;;1999.90;999.90;;;;;;;3.70;100.00;102603.69;4955773;28;20373;-78
2022/01/25 10:39:37;;;;;;;1999.90;999.90;;;;;;;3.88;100.00;102594.38;4953780;28;20446;-79
2022/01/25 10:42:12;;;;;;;1999.90;999.90;;;;;;;3.92;100.00;102601.91;4954637;28;20054;-81
2022/01/25 10:44:48;;;;;;;1999.90;999.90;;;;;;;3.84;100.00;102595.78;4964760;28;20050;-79
2022/01/25 10:47:17;;;;;;;1999.90;999.90;;;;;;;3.83;100.00;102583.34;4973968;28;20054;-79
2022/01/25 10:49:52;;;;;;;1999.90;999.90;;;;;;;3.84;100.00;102591.25;4933904;28;20525;-81
2022/01/25 10:52:24;;;;;;;1999.90;999.90;;;;;;;3.92;100.00;102582.19;4949381;28;20050;-81
2022/01/25 10:55:05;;;;;;;1999.90;999.90;;;;;;;3.92;100.00;102588.44;4954104;28;20062;-81
2022/01/25 10:57:39;;;;;;;1999.90;999.90;;;;;;;3.98;100.00;102576.06;4953722;28;20046;-79
2022/01/25 11:00:13;;;;;;;1999.90;999.90;;;;;;;3.90;100.00;102574.31;4960005;28;20539;-80
2022/01/25 11:02:50;;;;;;;1999.90;999.90;;;;;;;4.01;100.00;102577.56;4951519;28;20050;-79
2022/01/25 11:05:19;;;;;;;1999.90;999.90;;;;;;;4.03;100.00;102580.88;4953602;28;20062;-79
2022/01/25 11:07:48;;;;;;;1999.90;999.90;;;;;;;4.06;100.00;102575.09;4988419;28;20463;-78
2022/01/25 11:10:23;;;;;;;1999.90;999.90;;;;;;;4.04;100.00;102575.31;4949693;28;20061;-79
2022/01/25 11:13:06;;;;;;;1999.90;999.90;;;;;;;4.04;100.00;102575.31;4953423;28;20116;-79
2022/01/25 11:15:35;;;;;;;1999.90;999.90;;;;;;;3.94;100.00;102573.97;4950936;28;20066;-79
2022/01/25 11:18:08;;;;;;;1999.90;999.90;;;;;;;3.98;100.00;102564.44;4961660;28;20045;-77
2022/01/25 11:20:36;;;;;;;1999.90;999.90;;;;;;;3.93;100.00;102559.63;4969241;28;20066;-77
2022/01/25 11:23:10;;;;;;;1999.90;999.90;;;;;;;3.99;100.00;102558.91;4956141;28;20057;-79
2022/01/25 11:25:41;;;;;;;1999.90;999.90;;;;;;;3.95;100.00;102560.28;4980650;28;20050;-78
2022/01/25 11:28:09;;;;;;;1999.90;999.90;;;;;;;3.98;100.00;102548.28;4971056;28;20057;-78
2022/01/25 11:30:45;;;;;;;1999.90;999.90;;;;;;;4.05;100.00;102549.22;4962116;28;20046;-78
2022/01/25 11:33:14;;;;;;;1999.90;999.90;;;;;;;4.08;100.00;102548.81;4963861;28;20045;-80
2022/01/25 11:35:49;;;;;;;1999.90;999.90;;;;;;;4.08;100.00;102546.97;4960278;28;20061;-78
2022/01/25 11:38:31;;;;;;;1999.90;999.90;;;;;;;4.05;100.00;102546.53;4965062;28;20342;-79
2022/01/25 11:41:12;;;;;;;1999.90;999.90;;;;;;;4.03;100.00;102546.72;4958702;28;20602;-80
2022/01/25 11:44:05;;;;;;;1999.90;999.90;;;;;;;4.06;100.00;102546.31;4956690;28;21008;-80
2022/01/25 11:46:41;;;;;;;1999.90;999.90;;;;;;;3.99;100.00;102545.44;4960058;28;20054;-79
2022/01/25 11:49:17;;;;;;;1999.90;999.90;;;;;;;3.95;100.00;102529.81;4931177;28;20042;-80
2022/01/25 11:52:03;;;;;;;1999.90;999.90;;;;;;;4.04;100.00;102553.75;4953465;28;20054;-79
2022/01/25 11:54:37;;;;;;;1999.90;999.90;;;;;;;4.15;100.00;102552.41;4961948;28;20796;-79
2022/01/25 11:57:14;;;;;;;1999.90;999.90;;;;;;;4.04;100.00;102551.06;4956195;28;20409;-79
2022/01/25 11:59:52;;;;;;;1999.90;999.90;;;;;;;4.01;100.00;102554.13;4952718;28;20058;-80
2022/01/25 12:02:40;;;;;;;1999.90;999.90;;;;;;;3.99;100.00;102548.13;4974288;28;20058;-79
2022/01/25 12:05:18;;;;;;;1999.90;999.90;;;;;;;4.00;100.00;102539.00;4958890;28;20057;-80
2022/01/25 12:08:10;;;;;;;1999.90;999.90;;;;;;;4.02;100.00;102539.66;4954560;28;20142;-83
2022/01/25 12:10:47;;;;;;;1999.90;999.90;;;;;;;4.09;100.00;102540.56;4959238;28;20065;-81
2022/01/25 12:13:28;;;;;;;1999.90;999.90;;;;;;;4.04;100.00;102528.69;4964327;28;20046;-79
2022/01/25 12:16:26;;;;;;;1999.90;999.90;;;;;;;4.05;100.00;102533.06;4960917;28;20050;-80
2022/01/25 12:19:02;;;;;;;1999.90;999.90;;;;;;;4.08;100.00;102525.41;4954035;28;21176;-79
2022/01/25 12:22:01;;;;;;;1999.90;999.90;;;;;;;4.13;100.00;102532.94;4971321;28;20050;-80
2022/01/25 12:24:49;;;;;;;1999.90;999.90;;;;;;;4.09;100.00;102528.94;4947673;28;20062;-81
2022/01/25 12:27:22;;;;;;;1999.90;999.90;;;;;;;4.11;100.00;102521.50;4967146;28;20281;-79
2022/01/25 12:30:08;;;;;;;1999.90;999.90;;;;;;;4.18;100.00;102511.63;4963400;28;20064;-79